sensor_id;sensor_type;location;lat;lon;timestamp;pressure;altitude;pressure_sealevel;temperature;humidity
19827;BME280;10074;52.018;4.726;2023-04-08T00:02:05;46231.28;;;-144.79;100.00
19827;BME280;10074;52.018;4.726;2023-04-08T00:07:06;46235.28;;;-144.79;100.00
19827;BME280;10074;52.018;4.726;2023-04-08T00:12:06;46227.28;;;-144.79;100.00
19827;BME280;10074;52.018;4.726;2023-04-08T00:17:06;46229.28;;;-144.79;100.00
19827;BME280;10074;52.018;4.726;2023-04-08T00:22:07;46231.28;;;-144.79;100.00
19827;BME280;10074;52.018;4.726;2023-04-08T00:27:07;46235.28;;;-144.79;100.00
19827;BME280;10074;52.018;4.726;2023-04-08T00:32:07;46231.28;;;-144.79;100.00
19827;BME280;10074;52.018;4.726;2023-04-08T00:37:08;46235.28;;;-144.79;100.00
19827;BME280;10074;52.018;4.726;2023-04-08T00:42:08;46239.31;;;-144.79;100.00
19827;BME280;10074;52.018;4.726;2023-04-08T00:47:12;46227.28;;;-144.79;100.00
19827;BME280;10074;52.018;4.726;2023-04-08T00:52:12;46227.28;;;-144.79;100.00
19827;BME280;10074;52.018;4.726;2023-04-08T00:57:12;46231.28;;;-144.79;100.00
19827;BME280;10074;52.018;4.726;2023-04-08T01:07:24;46237.31;;;-144.79;100.00
19827;BME280;10074;52.018;4.726;2023-04-08T01:12:28;46231.28;;;-144.79;100.00
19827;BME280;10074;52.018;4.726;2023-04-08T01:17:30;46235.28;;;-144.79;100.00
19827;BME280;10074;52.018;4.726;2023-04-08T01:27:42;46237.31;;;-144.79;100.00
19827;BME280;10074;52.018;4.726;2023-04-08T01:32:43;46241.31;;;-144.79;100.00
19827;BME280;10074;52.018;4.726;2023-04-08T01:37:45;46241.31;;;-144.79;100.00
19827;BME280;10074;52.018;4.726;2023-04-08T01:42:47;46245.31;;;-144.79;100.00
19827;BME280;10074;52.018;4.726;2023-04-08T01:47:48;46241.31;;;-144.79;100.00
19827;BME280;10074;52.018;4.726;2023-04-08T01:52:50;46237.31;;;-144.79;100.00
19827;BME280;10074;52.018;4.726;2023-04-08T01:57:55;46237.31;;;-144.79;100.00
19827;BME280;10074;52.018;4.726;2023-04-08T02:02:59;46229.28;;;-144.79;100.00
19827;BME280;10074;52.018;4.726;2023-04-08T02:08:01;46243.31;;;-144.79;100.00
19827;BME280;10074;52.018;4.726;2023-04-08T02:13:01;46223.25;;;-144.79;100.00
19827;BME280;10074;52.018;4.726;2023-04-08T02:18:08;46235.28;;;-144.79;100.00
19827;BME280;10074;52.018;4.726;2023-04-08T02:23:23;46223.25;;;-144.79;100.00
19827;BME280;10074;52.018;4.726;2023-04-08T02:28:24;46239.31;;;-144.79;100.00
19827;BME280;10074;52.018;4.726;2023-04-08T02:33:26;46235.28;;;-144.79;100.00
19827;BME280;10074;52.018;4.726;2023-04-08T02:38:27;46227.28;;;-144.79;100.00
19827;BME280;10074;52.018;4.726;2023-04-08T02:43:29;46237.31;;;-144.79;100.00
19827;BME280;10074;52.018;4.726;2023-04-08T02:48:32;46241.31;;;-144.79;100.00
19827;BME280;10074;52.018;4.726;2023-04-08T02:53:33;46227.28;;;-144.79;100.00
19827;BME280;10074;52.018;4.726;2023-04-08T02:58:33;46245.31;;;-144.79;100.00
19827;BME280;10074;52.018;4.726;2023-04-08T03:03:33;46231.28;;;-144.79;100.00
19827;BME280;10074;52.018;4.726;2023-04-08T03:08:34;46229.28;;;-144.79;100.00
19827;BME280;10074;52.018;4.726;2023-04-08T03:13:34;46235.28;;;-144.79;100.00
19827;BME280;10074;52.018;4.726;2023-04-08T03:18:35;46235.28;;;-144.79;100.00
19827;BME280;10074;52.018;4.726;2023-04-08T03:23:35;46221.25;;;-144.79;100.00
19827;BME280;10074;52.018;4.726;2023-04-08T03:28:36;46239.31;;;-144.79;100.00
19827;BME280;10074;52.018;4.726;2023-04-08T03:33:36;46235.28;;;-144.79;100.00
19827;BME280;10074;52.018;4.726;2023-04-08T03:38:36;46229.28;;;-144.79;100.00
19827;BME280;10074;52.018;4.726;2023-04-08T03:43:37;46235.28;;;-144.79;100.00
19827;BME280;10074;52.018;4.726;2023-04-08T03:48:37;46235.28;;;-144.79;100.00
19827;BME280;10074;52.018;4.726;2023-04-08T03:53:37;46237.31;;;-144.79;100.00
19827;BME280;10074;52.018;4.726;2023-04-08T03:58:38;46241.31;;;-144.79;100.00
19827;BME280;10074;52.018;4.726;2023-04-08T04:03:38;46239.31;;;-144.79;100.00
19827;BME280;10074;52.018;4.726;2023-04-08T04:08:38;46243.31;;;-144.79;100.00
19827;BME280;10074;52.018;4.726;2023-04-08T04:13:39;46233.28;;;-144.79;100.00
19827;BME280;10074;52.018;4.726;2023-04-08T04:18:39;46237.31;;;-144.79;100.00
19827;BME280;10074;52.018;4.726;2023-04-08T04:23:39;46231.28;;;-144.79;100.00
19827;BME280;10074;52.018;4.726;2023-04-08T04:28:40;46235.28;;;-144.79;100.00
19827;BME280;10074;52.018;4.726;2023-04-08T04:33:40;46217.25;;;-144.79;100.00
19827;BME280;10074;52.018;4.726;2023-04-08T04:38:40;46229.28;;;-144.79;100.00
19827;BME280;10074;52.018;4.726;2023-04-08T04:43:42;46241.31;;;-144.79;100.00
19827;BME280;10074;52.018;4.726;2023-04-08T04:48:42;46245.31;;;-144.79;100.00
19827;BME280;10074;52.018;4.726;2023-04-08T04:53:43;46237.31;;;-144.79;100.00
19827;BME280;10074;52.018;4.726;2023-04-08T04:58:43;46235.28;;;-144.79;100.00
19827;BME280;10074;52.018;4.726;2023-04-08T05:03:43;46231.28;;;-144.79;100.00
19827;BME280;10074;52.018;4.726;2023-04-08T05:08:44;46247.31;;;-144.79;100.00
19827;BME280;10074;52.018;4.726;2023-04-08T05:13:44;46241.31;;;-144.79;100.00
19827;BME280;10074;52.018;4.726;2023-04-08T05:18:45;46243.31;;;-144.79;100.00
19827;BME280;10074;52.018;4.726;2023-04-08T05:23:45;46239.31;;;-144.79;100.00
19827;BME280;10074;52.018;4.726;2023-04-08T05:28:46;46233.28;;;-144.79;100.00
19827;BME280;10074;52.018;4.726;2023-04-08T05:33:46;46237.31;;;-144.79;100.00
19827;BME280;10074;52.018;4.726;2023-04-08T05:38:46;46245.31;;;-144.79;100.00
19827;BME280;10074;52.018;4.726;2023-04-08T05:43:47;46235.28;;;-144.79;100.00
19827;BME280;10074;52.018;4.726;2023-04-08T05:48:48;46235.28;;;-144.79;100.00
19827;BME280;10074;52.018;4.726;2023-04-08T05:53:48;46237.31;;;-144.79;100.00
19827;BME280;10074;52.018;4.726;2023-04-08T05:58:48;46239.31;;;-144.79;100.00
19827;BME280;10074;52.018;4.726;2023-04-08T06:03:49;46229.28;;;-144.79;100.00
19827;BME280;10074;52.018;4.726;2023-04-08T06:08:51;46231.28;;;-144.79;100.00
19827;BME280;10074;52.018;4.726;2023-04-08T06:13:51;46235.28;;;-144.79;100.00
19827;BME280;10074;52.018;4.726;2023-04-08T06:18:52;46225.28;;;-144.79;100.00
19827;BME280;10074;52.018;4.726;2023-04-08T06:23:52;46229.28;;;-144.79;100.00
19827;BME280;10074;52.018;4.726;2023-04-08T06:28:53;46223.25;;;-144.79;100.00
19827;BME280;10074;52.018;4.726;2023-04-08T06:33:53;46221.25;;;-144.79;100.00
19827;BME280;10074;52.018;4.726;2023-04-08T06:38:54;46221.25;;;-144.79;100.00
19827;BME280;10074;52.018;4.726;2023-04-08T06:43:55;46219.25;;;-144.79;100.00
19827;BME280;10074;52.018;4.726;2023-04-08T06:48:55;46217.25;;;-144.79;100.00
19827;BME280;10074;52.018;4.726;2023-04-08T06:53:55;46223.25;;;-144.79;100.00
19827;BME280;10074;52.018;4.726;2023-04-08T06:58:56;46227.28;;;-144.79;100.00
19827;BME280;10074;52.018;4.726;2023-04-08T07:03:57;46219.25;;;-144.79;100.00
19827;BME280;10074;52.018;4.726;2023-04-08T07:08:57;46225.28;;;-144.79;100.00
19827;BME280;10074;52.018;4.726;2023-04-08T07:13:57;46217.25;;;-144.79;100.00
19827;BME280;10074;52.018;4.726;2023-04-08T07:18:57;46217.25;;;-144.79;100.00
19827;BME280;10074;52.018;4.726;2023-04-08T07:23:58;46215.25;;;-144.79;100.00
19827;BME280;10074;52.018;4.726;2023-04-08T07:28:58;46221.25;;;-144.79;100.00
19827;BME280;10074;52.018;4.726;2023-04-08T07:33:58;46219.25;;;-144.79;100.00
19827;BME280;10074;52.018;4.726;2023-04-08T07:38:59;46229.28;;;-144.79;100.00
19827;BME280;10074;52.018;4.726;2023-04-08T07:43:59;46221.25;;;-144.79;100.00
19827;BME280;10074;52.018;4.726;2023-04-08T07:48:59;46223.25;;;-144.79;100.00
19827;BME280;10074;52.018;4.726;2023-04-08T07:54:00;46225.28;;;-144.79;100.00
19827;BME280;10074;52.018;4.726;2023-04-08T07:59:00;46227.28;;;-144.79;100.00
19827;BME280;10074;52.018;4.726;2023-04-08T08:04:01;46227.28;;;-144.79;100.00
19827;BME280;10074;52.018;4.726;2023-04-08T08:09:02;46239.31;;;-144.79;100.00
19827;BME280;10074;52.018;4.726;2023-04-08T08:14:02;46233.28;;;-144.79;100.00
19827;BME280;10074;52.018;4.726;2023-04-08T08:19:03;46239.31;;;-144.79;100.00
19827;BME280;10074;52.018;4.726;2023-04-08T08:24:06;46225.28;;;-144.79;100.00
19827;BME280;10074;52.018;4.726;2023-04-08T08:29:06;46235.28;;;-144.79;100.00
19827;BME280;10074;52.018;4.726;2023-04-08T08:34:07;46231.28;;;-144.79;100.00
19827;BME280;10074;52.018;4.726;2023-04-08T08:39:07;46223.25;;;-144.79;100.00
19827;BME280;10074;52.018;4.726;2023-04-08T08:44:08;46239.31;;;-144.79;100.00
19827;BME280;10074;52.018;4.726;2023-04-08T08:49:09;46223.25;;;-144.79;100.00
19827;BME280;10074;52.018;4.726;2023-04-08T08:54:10;46235.28;;;-144.79;100.00
19827;BME280;10074;52.018;4.726;2023-04-08T08:59:11;46227.28;;;-144.79;100.00
19827;BME280;10074;52.018;4.726;2023-04-08T09:04:16;46243.31;;;-144.79;100.00
19827;BME280;10074;52.018;4.726;2023-04-08T09:09:18;46237.31;;;-144.79;100.00
19827;BME280;10074;52.018;4.726;2023-04-08T09:14:20;46237.31;;;-144.79;100.00
19827;BME280;10074;52.018;4.726;2023-04-08T09:19:20;46235.28;;;-144.79;100.00
19827;BME280;10074;52.018;4.726;2023-04-08T09:24:29;46239.31;;;-144.79;100.00
19827;BME280;10074;52.018;4.726;2023-04-08T09:29:29;46223.25;;;-144.79;100.00
19827;BME280;10074;52.018;4.726;2023-04-08T09:34:29;46233.28;;;-144.79;100.00
19827;BME280;10074;52.018;4.726;2023-04-08T09:39:31;46225.28;;;-144.79;100.00
19827;BME280;10074;52.018;4.726;2023-04-08T09:44:31;46239.31;;;-144.79;100.00
19827;BME280;10074;52.018;4.726;2023-04-08T09:49:45;46223.25;;;-144.79;100.00
19827;BME280;10074;52.018;4.726;2023-04-08T09:54:53;46225.28;;;-144.79;100.00
19827;BME280;10074;52.018;4.726;2023-04-08T10:00:08;46227.28;;;-144.79;100.00
19827;BME280;10074;52.018;4.726;2023-04-08T10:05:11;46239.31;;;-144.79;100.00
19827;BME280;10074;52.018;4.726;2023-04-08T10:10:12;46221.25;;;-144.79;100.00
19827;BME280;10074;52.018;4.726;2023-04-08T10:15:25;46223.25;;;-144.79;100.00
19827;BME280;10074;52.018;4.726;2023-04-08T10:25:39;46215.25;;;-144.79;100.00
19827;BME280;10074;52.018;4.726;2023-04-08T10:30:53;46229.28;;;-144.79;100.00
19827;BME280;10074;52.018;4.726;2023-04-08T10:41:09;46219.25;;;-144.79;100.00
19827;BME280;10074;52.018;4.726;2023-04-08T10:46:12;46211.22;;;-144.79;100.00
19827;BME280;10074;52.018;4.726;2023-04-08T10:51:13;46223.25;;;-144.79;100.00
19827;BME280;10074;52.018;4.726;2023-04-08T10:56:13;46225.28;;;-144.79;100.00
19827;BME280;10074;52.018;4.726;2023-04-08T11:01:14;46221.25;;;-144.79;100.00
19827;BME280;10074;52.018;4.726;2023-04-08T11:06:15;46211.22;;;-144.79;100.00
19827;BME280;10074;52.018;4.726;2023-04-08T11:11:18;46215.25;;;-144.79;100.00
19827;BME280;10074;52.018;4.726;2023-04-08T11:16:19;46221.25;;;-144.79;100.00
19827;BME280;10074;52.018;4.726;2023-04-08T11:21:22;46215.25;;;-144.79;100.00
19827;BME280;10074;52.018;4.726;2023-04-08T11:26:24;46211.22;;;-144.79;100.00
19827;BME280;10074;52.018;4.726;2023-04-08T11:31:24;46203.22;;;-144.79;100.00
19827;BME280;10074;52.018;4.726;2023-04-08T11:36:27;46207.22;;;-144.79;100.00
19827;BME280;10074;52.018;4.726;2023-04-08T11:41:38;46201.22;;;-144.79;100.00
19827;BME280;10074;52.018;4.726;2023-04-08T11:46:39;46207.22;;;-144.79;100.00
19827;BME280;10074;52.018;4.726;2023-04-08T11:51:56;46215.25;;;-144.79;100.00
19827;BME280;10074;52.018;4.726;2023-04-08T11:56:57;46215.25;;;-144.79;100.00
19827;BME280;10074;52.018;4.726;2023-04-08T12:01:58;46201.22;;;-144.79;100.00
19827;BME280;10074;52.018;4.726;2023-04-08T12:06:58;46219.25;;;-144.79;100.00
19827;BME280;10074;52.018;4.726;2023-04-08T12:11:58;46211.22;;;-144.79;100.00
19827;BME280;10074;52.018;4.726;2023-04-08T12:17:00;46215.25;;;-144.79;100.00
19827;BME280;10074;52.018;4.726;2023-04-08T12:22:00;46225.28;;;-144.79;100.00
19827;BME280;10074;52.018;4.726;2023-04-08T12:27:01;46203.22;;;-144.79;100.00
19827;BME280;10074;52.018;4.726;2023-04-08T12:32:03;46215.25;;;-144.79;100.00
19827;BME280;10074;52.018;4.726;2023-04-08T12:37:04;46215.25;;;-144.79;100.00
19827;BME280;10074;52.018;4.726;2023-04-08T12:42:04;46211.22;;;-144.79;100.00
19827;BME280;10074;52.018;4.726;2023-04-08T12:47:05;46207.22;;;-144.79;100.00
19827;BME280;10074;52.018;4.726;2023-04-08T12:52:05;46219.25;;;-144.79;100.00
19827;BME280;10074;52.018;4.726;2023-04-08T12:57:05;46213.25;;;-144.79;100.00
19827;BME280;10074;52.018;4.726;2023-04-08T13:02:06;46223.25;;;-144.79;100.00
19827;BME280;10074;52.018;4.726;2023-04-08T13:07:06;46219.25;;;-144.79;100.00
19827;BME280;10074;52.018;4.726;2023-04-08T13:12:07;46219.25;;;-144.79;100.00
19827;BME280;10074;52.018;4.726;2023-04-08T13:17:07;46219.25;;;-144.79;100.00
19827;BME280;10074;52.018;4.726;2023-04-08T13:22:07;46215.25;;;-144.79;100.00
19827;BME280;10074;52.018;4.726;2023-04-08T13:27:07;46219.25;;;-144.79;100.00
19827;BME280;10074;52.018;4.726;2023-04-08T13:32:08;46213.25;;;-144.79;100.00
19827;BME280;10074;52.018;4.726;2023-04-08T13:37:08;46215.25;;;-144.79;100.00
19827;BME280;10074;52.018;4.726;2023-04-08T13:42:08;46213.25;;;-144.79;100.00
19827;BME280;10074;52.018;4.726;2023-04-08T13:47:09;46227.28;;;-144.79;100.00
19827;BME280;10074;52.018;4.726;2023-04-08T13:52:09;46215.25;;;-144.79;100.00
19827;BME280;10074;52.018;4.726;2023-04-08T13:57:10;46211.22;;;-144.79;100.00
19827;BME280;10074;52.018;4.726;2023-04-08T14:02:10;46215.25;;;-144.79;100.00
19827;BME280;10074;52.018;4.726;2023-04-08T14:07:12;46215.25;;;-144.79;100.00
19827;BME280;10074;52.018;4.726;2023-04-08T14:12:12;46211.22;;;-144.79;100.00
19827;BME280;10074;52.018;4.726;2023-04-08T14:17:13;46201.22;;;-144.79;100.00
19827;BME280;10074;52.018;4.726;2023-04-08T14:22:13;46221.25;;;-144.79;100.00
19827;BME280;10074;52.018;4.726;2023-04-08T14:27:14;46219.25;;;-144.79;100.00
19827;BME280;10074;52.018;4.726;2023-04-08T14:32:15;46219.25;;;-144.79;100.00
19827;BME280;10074;52.018;4.726;2023-04-08T14:37:15;46219.25;;;-144.79;100.00
19827;BME280;10074;52.018;4.726;2023-04-08T14:42:16;46215.25;;;-144.79;100.00
19827;BME280;10074;52.018;4.726;2023-04-08T14:47:17;46225.28;;;-144.79;100.00
19827;BME280;10074;52.018;4.726;2023-04-08T14:52:17;46223.25;;;-144.79;100.00
19827;BME280;10074;52.018;4.726;2023-04-08T14:57:18;46215.25;;;-144.79;100.00
19827;BME280;10074;52.018;4.726;2023-04-08T15:02:19;46211.22;;;-144.79;100.00
19827;BME280;10074;52.018;4.726;2023-04-08T15:07:19;46213.25;;;-144.79;100.00
19827;BME280;10074;52.018;4.726;2023-04-08T15:12:19;46205.22;;;-144.79;100.00
19827;BME280;10074;52.018;4.726;2023-04-08T15:17:20;46215.25;;;-144.79;100.00
19827;BME280;10074;52.018;4.726;2023-04-08T15:22:20;46221.25;;;-144.79;100.00
19827;BME280;10074;52.018;4.726;2023-04-08T15:27:20;46215.25;;;-144.79;100.00
19827;BME280;10074;52.018;4.726;2023-04-08T15:32:21;46213.25;;;-144.79;100.00
19827;BME280;10074;52.018;4.726;2023-04-08T15:37:22;46211.22;;;-144.79;100.00
19827;BME280;10074;52.018;4.726;2023-04-08T15:42:22;46235.28;;;-144.79;100.00
19827;BME280;10074;52.018;4.726;2023-04-08T15:47:23;46221.25;;;-144.79;100.00
19827;BME280;10074;52.018;4.726;2023-04-08T15:52:23;46219.25;;;-144.79;100.00
19827;BME280;10074;52.018;4.726;2023-04-08T15:57:23;46219.25;;;-144.79;100.00
19827;BME280;10074;52.018;4.726;2023-04-08T16:02:25;46231.28;;;-144.79;100.00
19827;BME280;10074;52.018;4.726;2023-04-08T16:07:26;46229.28;;;-144.79;100.00
19827;BME280;10074;52.018;4.726;2023-04-08T16:12:27;46219.25;;;-144.79;100.00
19827;BME280;10074;52.018;4.726;2023-04-08T16:17:27;46227.28;;;-144.79;100.00
19827;BME280;10074;52.018;4.726;2023-04-08T16:22:28;46221.25;;;-144.79;100.00
19827;BME280;10074;52.018;4.726;2023-04-08T16:27:28;46235.28;;;-144.79;100.00
19827;BME280;10074;52.018;4.726;2023-04-08T16:32:28;46229.28;;;-144.79;100.00
19827;BME280;10074;52.018;4.726;2023-04-08T16:37:29;46219.25;;;-144.79;100.00
19827;BME280;10074;52.018;4.726;2023-04-08T16:42:30;46219.25;;;-144.79;100.00
19827;BME280;10074;52.018;4.726;2023-04-08T16:47:32;46223.25;;;-144.79;100.00
19827;BME280;10074;52.018;4.726;2023-04-08T16:52:33;46231.28;;;-144.79;100.00
19827;BME280;10074;52.018;4.726;2023-04-08T16:57:33;46223.25;;;-144.79;100.00
19827;BME280;10074;52.018;4.726;2023-04-08T17:02:33;46229.28;;;-144.79;100.00
19827;BME280;10074;52.018;4.726;2023-04-08T17:07:34;46217.25;;;-144.79;100.00
19827;BME280;10074;52.018;4.726;2023-04-08T17:12:35;46231.28;;;-144.79;100.00
19827;BME280;10074;52.018;4.726;2023-04-08T17:17:35;46227.28;;;-144.79;100.00
19827;BME280;10074;52.018;4.726;2023-04-08T17:22:35;46231.28;;;-144.79;100.00
19827;BME280;10074;52.018;4.726;2023-04-08T17:27:36;46229.28;;;-144.79;100.00
19827;BME280;10074;52.018;4.726;2023-04-08T17:32:36;46223.25;;;-144.79;100.00
19827;BME280;10074;52.018;4.726;2023-04-08T17:37:36;46223.25;;;-144.79;100.00
19827;BME280;10074;52.018;4.726;2023-04-08T17:42:37;46239.31;;;-144.79;100.00
19827;BME280;10074;52.018;4.726;2023-04-08T17:47:38;46231.28;;;-144.79;100.00
19827;BME280;10074;52.018;4.726;2023-04-08T17:52:42;46227.28;;;-144.79;100.00
19827;BME280;10074;52.018;4.726;2023-04-08T17:57:42;46237.31;;;-144.79;100.00
19827;BME280;10074;52.018;4.726;2023-04-08T18:02:43;46241.31;;;-144.79;100.00
19827;BME280;10074;52.018;4.726;2023-04-08T18:07:43;46227.28;;;-144.79;100.00
19827;BME280;10074;52.018;4.726;2023-04-08T18:12:45;46229.28;;;-144.79;100.00
19827;BME280;10074;52.018;4.726;2023-04-08T18:17:45;46227.28;;;-144.79;100.00
19827;BME280;10074;52.018;4.726;2023-04-08T18:22:46;46235.28;;;-144.79;100.00
19827;BME280;10074;52.018;4.726;2023-04-08T18:27:48;46239.31;;;-144.79;100.00
19827;BME280;10074;52.018;4.726;2023-04-08T18:32:48;46239.31;;;-144.79;100.00
19827;BME280;10074;52.018;4.726;2023-04-08T18:37:48;46235.28;;;-144.79;100.00
19827;BME280;10074;52.018;4.726;2023-04-08T18:42:49;46231.28;;;-144.79;100.00
19827;BME280;10074;52.018;4.726;2023-04-08T18:47:49;46233.28;;;-144.79;100.00
19827;BME280;10074;52.018;4.726;2023-04-08T18:52:49;46237.31;;;-144.79;100.00
19827;BME280;10074;52.018;4.726;2023-04-08T18:57:50;46235.28;;;-144.79;100.00
19827;BME280;10074;52.018;4.726;2023-04-08T19:02:51;46243.31;;;-144.79;100.00
19827;BME280;10074;52.018;4.726;2023-04-08T19:07:51;46239.31;;;-144.79;100.00
19827;BME280;10074;52.018;4.726;2023-04-08T19:12:52;46227.28;;;-144.79;100.00
19827;BME280;10074;52.018;4.726;2023-04-08T19:17:52;46227.28;;;-144.79;100.00
19827;BME280;10074;52.018;4.726;2023-04-08T19:22:53;46229.28;;;-144.79;100.00
19827;BME280;10074;52.018;4.726;2023-04-08T19:27:54;46235.28;;;-144.79;100.00
19827;BME280;10074;52.018;4.726;2023-04-08T19:32:55;46243.31;;;-144.79;100.00
19827;BME280;10074;52.018;4.726;2023-04-08T19:37:55;46229.28;;;-144.79;100.00
19827;BME280;10074;52.018;4.726;2023-04-08T19:42:55;46233.28;;;-144.79;100.00
19827;BME280;10074;52.018;4.726;2023-04-08T19:47:56;46243.31;;;-144.79;100.00
19827;BME280;10074;52.018;4.726;2023-04-08T19:52:56;46227.28;;;-144.79;100.00
19827;BME280;10074;52.018;4.726;2023-04-08T19:57:56;46251.34;;;-144.79;100.00
19827;BME280;10074;52.018;4.726;2023-04-08T20:02:57;46239.31;;;-144.79;100.00
19827;BME280;10074;52.018;4.726;2023-04-08T20:07:57;46239.31;;;-144.79;100.00
19827;BME280;10074;52.018;4.726;2023-04-08T20:12:58;46231.28;;;-144.79;100.00
19827;BME280;10074;52.018;4.726;2023-04-08T20:17:58;46235.28;;;-144.79;100.00
19827;BME280;10074;52.018;4.726;2023-04-08T20:22:58;46239.31;;;-144.79;100.00
19827;BME280;10074;52.018;4.726;2023-04-08T20:27:58;46233.28;;;-144.79;100.00
19827;BME280;10074;52.018;4.726;2023-04-08T20:32:59;46237.31;;;-144.79;100.00
19827;BME280;10074;52.018;4.726;2023-04-08T20:37:59;46231.28;;;-144.79;100.00
19827;BME280;10074;52.018;4.726;2023-04-08T20:42:59;46227.28;;;-144.79;100.00
19827;BME280;10074;52.018;4.726;2023-04-08T20:48:00;46245.31;;;-144.79;100.00
19827;BME280;10074;52.018;4.726;2023-04-08T20:53:00;46241.31;;;-144.79;100.00
19827;BME280;10074;52.018;4.726;2023-04-08T20:58:01;46235.28;;;-144.79;100.00
19827;BME280;10074;52.018;4.726;2023-04-08T21:03:04;46237.31;;;-144.79;100.00
19827;BME280;10074;52.018;4.726;2023-04-08T21:08:05;46237.31;;;-144.79;100.00
19827;BME280;10074;52.018;4.726;2023-04-08T21:13:05;46237.31;;;-144.79;100.00
19827;BME280;10074;52.018;4.726;2023-04-08T21:18:05;46233.28;;;-144.79;100.00
19827;BME280;10074;52.018;4.726;2023-04-08T21:23:06;46247.31;;;-144.79;100.00
19827;BME280;10074;52.018;4.726;2023-04-08T21:28:06;46237.31;;;-144.79;100.00
19827;BME280;10074;52.018;4.726;2023-04-08T21:33:07;46237.31;;;-144.79;100.00
19827;BME280;10074;52.018;4.726;2023-04-08T21:38:07;46239.31;;;-144.79;100.00
19827;BME280;10074;52.018;4.726;2023-04-08T21:43:07;46235.28;;;-144.79;100.00
19827;BME280;10074;52.018;4.726;2023-04-08T21:48:08;46249.34;;;-144.79;100.00
19827;BME280;10074;52.018;4.726;2023-04-08T21:53:08;46239.31;;;-144.79;100.00
19827;BME280;10074;52.018;4.726;2023-04-08T21:58:08;46239.31;;;-144.79;100.00
19827;BME280;10074;52.018;4.726;2023-04-08T22:03:11;46243.31;;;-144.79;100.00
19827;BME280;10074;52.018;4.726;2023-04-08T22:08:11;46241.31;;;-144.79;100.00
19827;BME280;10074;52.018;4.726;2023-04-08T22:13:11;46233.28;;;-144.79;100.00
19827;BME280;10074;52.018;4.726;2023-04-08T22:18:13;46237.31;;;-144.79;100.00
19827;BME280;10074;52.018;4.726;2023-04-08T22:23:13;46247.31;;;-144.79;100.00
19827;BME280;10074;52.018;4.726;2023-04-08T22:28:13;46235.28;;;-144.79;100.00
19827;BME280;10074;52.018;4.726;2023-04-08T22:33:14;46231.28;;;-144.79;100.00
19827;BME280;10074;52.018;4.726;2023-04-08T22:38:14;46235.28;;;-144.79;100.00
19827;BME280;10074;52.018;4.726;2023-04-08T22:43:14;46239.31;;;-144.79;100.00
19827;BME280;10074;52.018;4.726;2023-04-08T22:48:14;46237.31;;;-144.79;100.00
19827;BME280;10074;52.018;4.726;2023-04-08T22:53:15;46229.28;;;-144.79;100.00
19827;BME280;10074;52.018;4.726;2023-04-08T22:58:15;46243.31;;;-144.79;100.00
19827;BME280;10074;52.018;4.726;2023-04-08T23:03:15;46239.31;;;-144.79;100.00
19827;BME280;10074;52.018;4.726;2023-04-08T23:08:16;46247.31;;;-144.79;100.00
19827;BME280;10074;52.018;4.726;2023-04-08T23:13:16;46249.34;;;-144.79;100.00
19827;BME280;10074;52.018;4.726;2023-04-08T23:18:16;46239.31;;;-144.79;100.00
19827;BME280;10074;52.018;4.726;2023-04-08T23:23:17;46239.31;;;-144.79;100.00
19827;BME280;10074;52.018;4.726;2023-04-08T23:28:17;46235.28;;;-144.79;100.00
19827;BME280;10074;52.018;4.726;2023-04-08T23:33:17;46239.31;;;-144.79;100.00
19827;BME280;10074;52.018;4.726;2023-04-08T23:38:17;46239.31;;;-144.79;100.00
19827;BME280;10074;52.018;4.726;2023-04-08T23:43:18;46235.28;;;-144.79;100.00
19827;BME280;10074;52.018;4.726;2023-04-08T23:48:18;46241.31;;;-144.79;100.00
19827;BME280;10074;52.018;4.726;2023-04-08T23:53:19;46239.31;;;-144.79;100.00
19827;BME280;10074;52.018;4.726;2023-04-08T23:58:19;46235.28;;;-144.79;100.00
